createdAt,value
2023-08-14T00:00:18.374Z,5.90
2023-08-14T00:01:18.324Z,7.00
2023-08-14T00:02:18.613Z,8.20
2023-08-14T00:03:18.330Z,6.30
2023-08-14T00:04:18.302Z,6.60
2023-08-14T00:05:18.311Z,8.20
2023-08-14T00:06:18.297Z,7.10
2023-08-14T00:07:18.304Z,8.60
2023-08-14T00:08:18.283Z,7.10
2023-08-14T00:09:18.222Z,8.20
2023-08-14T00:10:18.236Z,6.10
2023-08-14T00:11:18.215Z,5.10
2023-08-14T00:12:18.449Z,6.30
2023-08-14T00:13:18.217Z,6.80
2023-08-14T00:14:18.184Z,5.60
2023-08-14T00:15:18.143Z,7.80
2023-08-14T00:16:18.189Z,6.50
2023-08-14T00:17:18.143Z,5.90
2023-08-14T00:18:18.142Z,7.20
2023-08-14T00:19:18.204Z,6.80
2023-08-14T00:20:18.111Z,5.80
2023-08-14T00:21:18.128Z,8.30
2023-08-14T00:22:18.418Z,10.00
2023-08-14T00:23:18.072Z,5.00
2023-08-14T00:24:18.061Z,7.20
2023-08-14T00:25:18.070Z,7.60
2023-08-14T00:26:18.079Z,10.40
2023-08-14T00:27:18.026Z,11.40
2023-08-14T00:28:18.070Z,8.20
2023-08-14T00:29:18.007Z,7.10
2023-08-14T00:30:18.035Z,5.30
2023-08-14T00:31:18.391Z,8.40
2023-08-14T00:32:18.256Z,12.20
2023-08-14T00:33:17.954Z,8.80
2023-08-14T00:34:17.979Z,8.90
2023-08-14T00:35:17.942Z,7.70
2023-08-14T00:36:18.236Z,5.30
2023-08-14T00:37:17.950Z,7.30
2023-08-14T00:38:17.967Z,6.30
2023-08-14T00:39:17.902Z,7.30
2023-08-14T00:40:17.926Z,7.00
2023-08-14T00:41:17.914Z,5.90
2023-08-14T00:42:18.204Z,7.40
2023-08-14T00:43:18.567Z,5.10
2023-08-14T00:44:17.860Z,8.10
2023-08-14T00:45:18.730Z,5.90
2023-08-14T00:46:17.890Z,8.80
2023-08-14T00:47:17.843Z,8.10
2023-08-14T00:48:17.838Z,5.50
2023-08-14T00:49:17.846Z,8.50
2023-08-14T00:50:17.784Z,8.70
2023-08-14T00:51:17.780Z,5.00
2023-08-14T00:52:18.095Z,13.50
2023-08-14T00:53:17.773Z,7.80
2023-08-14T00:54:17.752Z,8.30
2023-08-14T00:55:17.807Z,7.50
2023-08-14T00:56:17.730Z,5.70
2023-08-14T00:57:17.733Z,8.50
2023-08-14T00:58:17.709Z,9.00
2023-08-14T00:59:17.719Z,8.20
2023-08-14T01:00:17.690Z,6.90
2023-08-14T01:01:17.787Z,9.20
2023-08-14T01:02:17.850Z,9.30
2023-08-14T01:03:17.759Z,10.80
2023-08-14T01:04:17.661Z,7.70
2023-08-14T01:05:17.617Z,7.40
2023-08-14T01:06:17.650Z,5.10
2023-08-14T01:07:17.641Z,11.60
2023-08-14T01:08:17.612Z,5.60
2023-08-14T01:09:17.600Z,7.40
2023-08-14T01:10:17.584Z,9.40
2023-08-14T01:11:17.619Z,5.40
2023-08-14T01:12:17.927Z,8.00
2023-08-14T01:13:17.561Z,6.60
2023-08-14T01:14:17.548Z,3.90
2023-08-14T01:15:17.526Z,6.60
2023-08-14T01:16:17.630Z,6.50
2023-08-14T01:17:17.525Z,9.90
2023-08-14T01:18:17.505Z,7.20
2023-08-14T01:19:17.522Z,8.70
2023-08-14T01:20:17.493Z,7.60
2023-08-14T01:21:17.497Z,8.10
2023-08-14T01:22:17.837Z,7.80
2023-08-14T01:23:17.466Z,7.90
2023-08-14T01:24:17.426Z,6.40
2023-08-14T01:25:17.424Z,8.10
2023-08-14T01:26:17.400Z,10.50
2023-08-14T01:27:17.412Z,8.00
2023-08-14T01:28:17.381Z,8.00
2023-08-14T01:29:17.392Z,7.20
2023-08-14T01:30:17.425Z,9.40
2023-08-14T01:31:17.361Z,6.60
2023-08-14T01:32:17.565Z,7.00
2023-08-14T01:33:17.321Z,9.20
2023-08-14T01:34:17.353Z,9.50
2023-08-14T01:35:17.300Z,9.20
2023-08-14T01:36:17.309Z,7.40
2023-08-14T01:37:17.327Z,6.70
2023-08-14T01:38:17.317Z,9.30
2023-08-14T01:39:17.271Z,7.90
2023-08-14T01:40:17.317Z,7.40
2023-08-14T01:41:17.265Z,8.30
2023-08-14T01:42:17.602Z,8.00
2023-08-14T01:43:17.219Z,6.60
2023-08-14T01:44:17.251Z,10.00
2023-08-14T01:45:17.216Z,7.50
2023-08-14T01:46:17.233Z,6.00
2023-08-14T01:47:17.199Z,5.80
2023-08-14T01:48:17.196Z,6.00
2023-08-14T01:49:17.833Z,5.70
2023-08-14T01:50:17.169Z,8.50
2023-08-14T01:51:17.142Z,8.40
2023-08-14T01:52:17.380Z,7.20
2023-08-14T01:53:17.136Z,6.80
2023-08-14T01:54:17.168Z,9.50
2023-08-14T01:55:17.110Z,7.90
2023-08-14T01:56:17.086Z,6.80
2023-08-14T01:57:17.077Z,8.70
2023-08-14T01:58:17.055Z,7.40
2023-08-14T01:59:17.067Z,8.20
2023-08-14T02:00:17.054Z,9.80
2023-08-14T02:01:17.077Z,11.40
2023-08-14T02:02:17.350Z,11.80
2023-08-14T02:03:17.127Z,10.20
2023-08-14T02:04:17.042Z,5.90
2023-08-14T02:05:16.992Z,8.30
2023-08-14T02:06:17.014Z,7.10
2023-08-14T02:07:17.022Z,6.70
2023-08-14T02:08:16.977Z,8.20
2023-08-14T02:09:16.966Z,8.40
2023-08-14T02:10:16.971Z,7.80
2023-08-14T02:11:16.960Z,9.50
2023-08-14T02:12:17.196Z,9.60
2023-08-14T02:13:16.911Z,11.10
2023-08-14T02:14:16.905Z,10.40
2023-08-14T02:15:16.898Z,9.40
2023-08-14T02:16:16.921Z,7.40
2023-08-14T02:17:16.853Z,7.70
2023-08-14T02:18:16.855Z,9.30
2023-08-14T02:19:16.892Z,7.70
2023-08-14T02:20:16.846Z,8.90
2023-08-14T02:21:16.827Z,9.30
2023-08-14T02:22:17.057Z,9.80
2023-08-14T02:23:16.841Z,8.40
2023-08-14T02:24:16.831Z,8.00
2023-08-14T02:25:16.824Z,6.60
2023-08-14T02:26:16.787Z,8.80
2023-08-14T02:27:16.760Z,6.50
2023-08-14T02:28:16.752Z,7.60
2023-08-14T02:29:16.778Z,8.00
2023-08-14T02:30:16.739Z,13.30
2023-08-14T02:31:16.758Z,7.10
2023-08-14T02:32:17.047Z,10.10
2023-08-14T02:33:16.709Z,7.60
2023-08-14T02:34:16.687Z,6.10
2023-08-14T02:35:16.682Z,6.50
2023-08-14T02:36:16.684Z,6.00
2023-08-14T02:37:16.672Z,7.30
2023-08-14T02:38:16.632Z,8.00
2023-08-14T02:39:16.699Z,7.90
2023-08-14T02:40:16.653Z,7.80
2023-08-14T02:41:16.628Z,6.80
2023-08-14T02:42:16.910Z,7.30
2023-08-14T02:43:16.570Z,8.00
2023-08-14T02:44:16.609Z,7.50
2023-08-14T02:45:16.575Z,6.90
2023-08-14T02:46:16.622Z,6.20
2023-08-14T02:47:16.579Z,6.00
2023-08-14T02:48:16.545Z,8.50
2023-08-14T02:49:16.530Z,10.00
2023-08-14T02:50:16.538Z,6.30
2023-08-14T02:51:16.529Z,9.30
2023-08-14T02:52:16.765Z,7.60
2023-08-14T02:53:16.489Z,5.00
2023-08-14T02:54:16.510Z,6.50
2023-08-14T02:55:16.467Z,5.10
2023-08-14T02:56:16.444Z,5.60
2023-08-14T02:57:16.476Z,5.00
2023-08-14T02:58:16.429Z,5.20
2023-08-14T02:59:16.414Z,9.60
2023-08-14T03:00:16.446Z,6.80
2023-08-14T03:01:16.391Z,8.00
2023-08-14T03:02:16.763Z,11.70
2023-08-14T03:03:16.578Z,7.30
2023-08-14T03:04:16.354Z,9.40
2023-08-14T03:05:16.360Z,8.00
2023-08-14T03:06:16.367Z,7.00
2023-08-14T03:07:16.388Z,7.30
2023-08-14T03:08:16.355Z,6.30
2023-08-14T03:09:16.305Z,5.80
2023-08-14T03:10:16.295Z,4.50
2023-08-14T03:11:16.294Z,7.90
2023-08-14T03:12:16.489Z,5.90
2023-08-14T03:13:16.316Z,6.60
2023-08-14T03:14:16.268Z,7.40
2023-08-14T03:15:16.239Z,6.40
2023-08-14T03:16:16.284Z,5.90
2023-08-14T03:17:16.233Z,6.40
2023-08-14T03:18:16.239Z,6.10
2023-08-14T03:19:16.210Z,8.00
2023-08-14T03:20:16.257Z,7.10
2023-08-14T03:21:16.190Z,5.40
2023-08-14T03:22:16.551Z,6.80
2023-08-14T03:23:16.157Z,8.60
2023-08-14T03:24:16.151Z,7.90
2023-08-14T03:25:16.154Z,6.70
2023-08-14T03:26:16.144Z,6.70
2023-08-14T03:27:16.149Z,6.20
2023-08-14T03:28:16.167Z,8.10
2023-08-14T03:29:16.090Z,8.80
2023-08-14T03:30:16.039Z,7.80
2023-08-14T03:31:16.179Z,9.00
2023-08-14T03:32:16.457Z,7.80
2023-08-14T03:33:16.100Z,8.80
2023-08-14T03:34:16.016Z,8.70
2023-08-14T03:35:15.983Z,7.00
2023-08-14T03:36:15.969Z,8.30
2023-08-14T03:37:16.080Z,5.80
2023-08-14T03:38:15.949Z,7.30
2023-08-14T03:39:15.990Z,5.80
2023-08-14T03:40:16.011Z,5.20
2023-08-14T03:41:15.936Z,4.60
2023-08-14T03:42:16.337Z,7.00
2023-08-14T03:43:15.918Z,8.20
2023-08-14T03:44:15.947Z,7.80
2023-08-14T03:45:15.888Z,4.10
2023-08-14T03:46:15.911Z,5.70
2023-08-14T03:47:15.927Z,7.00
2023-08-14T03:48:15.828Z,4.80
2023-08-14T03:49:15.833Z,7.70
2023-08-14T03:50:15.875Z,8.30
2023-08-14T03:51:15.820Z,5.10
2023-08-14T03:52:16.122Z,10.90
2023-08-14T03:53:15.780Z,9.70
2023-08-14T03:54:15.788Z,5.30
2023-08-14T03:55:15.765Z,6.60
2023-08-14T03:56:15.768Z,9.00
2023-08-14T03:57:15.761Z,9.60
2023-08-14T03:58:15.735Z,7.10
2023-08-14T03:59:15.739Z,7.90
2023-08-14T04:00:15.725Z,10.10
2023-08-14T04:01:15.701Z,7.00
2023-08-14T04:02:15.700Z,6.90
2023-08-14T04:03:15.797Z,6.60
2023-08-14T04:04:15.677Z,7.80
2023-08-14T04:05:15.681Z,5.70
2023-08-14T04:06:15.686Z,9.70
2023-08-14T04:07:15.650Z,7.60
2023-08-14T04:08:15.679Z,7.50
2023-08-14T04:09:15.658Z,10.10
2023-08-14T04:10:15.617Z,9.40
2023-08-14T04:11:15.608Z,8.40
2023-08-14T04:12:15.846Z,8.40
2023-08-14T04:13:15.594Z,10.60
2023-08-14T04:14:15.562Z,10.30
2023-08-14T04:15:15.586Z,9.50
2023-08-14T04:16:15.606Z,8.90
2023-08-14T04:17:15.527Z,8.20
2023-08-14T04:18:15.580Z,6.30
2023-08-14T04:19:15.548Z,7.30
2023-08-14T04:20:15.548Z,7.20
2023-08-14T04:21:15.495Z,8.00
2023-08-14T04:22:15.472Z,9.00
2023-08-14T04:23:15.506Z,9.40
2023-08-14T04:24:15.473Z,7.10
2023-08-14T04:25:15.440Z,7.40
2023-08-14T04:26:15.439Z,9.50
2023-08-14T04:27:15.427Z,7.70
2023-08-14T04:28:15.446Z,8.30
2023-08-14T04:29:15.439Z,7.90
2023-08-14T04:30:15.395Z,6.70
2023-08-14T04:31:15.378Z,6.90
2023-08-14T04:32:15.422Z,7.60
2023-08-14T04:33:15.377Z,6.10
2023-08-14T04:34:15.364Z,4.90
2023-08-14T04:35:15.355Z,7.40
2023-08-14T04:36:15.368Z,7.90
2023-08-14T04:37:15.332Z,5.60
2023-08-14T04:38:15.340Z,10.80
2023-08-14T04:39:15.294Z,9.80
2023-08-14T04:40:15.304Z,9.40
2023-08-14T04:41:15.303Z,8.90
2023-08-14T04:42:15.266Z,9.50
2023-08-14T04:43:15.256Z,7.90
2023-08-14T04:44:15.250Z,8.20
2023-08-14T04:45:15.259Z,8.40
2023-08-14T04:46:15.274Z,8.40
2023-08-14T04:47:15.214Z,7.00
2023-08-14T04:48:15.274Z,9.10
2023-08-14T04:49:15.248Z,6.60
2023-08-14T04:50:15.238Z,6.90
2023-08-14T04:51:15.197Z,5.80
2023-08-14T04:52:15.169Z,7.50
2023-08-14T04:53:15.216Z,8.40
2023-08-14T04:54:15.163Z,6.10
2023-08-14T04:55:15.163Z,7.60
2023-08-14T04:56:15.120Z,9.80
2023-08-14T04:57:15.689Z,7.90
2023-08-14T04:58:15.138Z,7.20
2023-08-14T04:59:15.108Z,9.60
2023-08-14T05:00:15.142Z,6.00
2023-08-14T05:01:15.194Z,8.60
2023-08-14T05:02:15.278Z,7.50
2023-08-14T05:03:15.037Z,7.60
2023-08-14T05:04:15.089Z,15.50
2023-08-14T05:05:15.045Z,21.90
2023-08-14T05:06:15.021Z,15.70
2023-08-14T05:07:15.054Z,11.50
2023-08-14T05:08:14.992Z,5.90
2023-08-14T05:09:25.640Z,7.40
2023-08-14T05:10:14.990Z,7.40
2023-08-14T05:11:15.501Z,6.70
2023-08-14T05:12:15.463Z,8.40
2023-08-14T05:13:15.124Z,14.20
2023-08-14T05:14:15.031Z,8.00
2023-08-14T05:15:15.022Z,6.80
2023-08-14T05:16:15.047Z,6.70
2023-08-14T05:17:14.982Z,8.00
2023-08-14T05:18:14.969Z,6.70
2023-08-14T05:19:15.037Z,7.40
2023-08-14T05:20:14.990Z,5.20
2023-08-14T05:21:15.044Z,4.90
2023-08-14T05:22:14.980Z,7.80
2023-08-14T05:23:14.873Z,8.40
2023-08-14T05:24:14.857Z,5.80
2023-08-14T05:25:14.876Z,9.80
2023-08-14T05:26:14.876Z,10.70
2023-08-14T05:27:14.885Z,9.10
2023-08-14T05:28:14.869Z,7.90
2023-08-14T05:29:14.878Z,8.40
2023-08-14T05:30:14.920Z,19.10
2023-08-14T05:31:14.848Z,18.60
2023-08-14T05:32:14.846Z,19.30
2023-08-14T05:33:14.803Z,24.10
2023-08-14T05:34:14.797Z,20.90
2023-08-14T05:35:14.838Z,25.40
2023-08-14T05:36:14.744Z,18.60
2023-08-14T05:37:14.739Z,20.20
2023-08-14T05:38:14.739Z,21.70
2023-08-14T05:39:14.718Z,23.10
2023-08-14T05:40:14.771Z,26.20
2023-08-14T05:41:14.707Z,26.00
2023-08-14T05:42:14.770Z,25.30
2023-08-14T05:43:14.762Z,13.90
2023-08-14T05:44:14.713Z,23.90
2023-08-14T05:45:14.698Z,25.80
2023-08-14T05:46:14.756Z,23.80
2023-08-14T05:47:14.918Z,19.90
2023-08-14T05:48:16.286Z,18.20
2023-08-14T05:49:17.417Z,21.10
2023-08-14T05:50:19.512Z,23.40
2023-08-14T05:53:56.157Z,27.70
2023-08-14T05:55:00.047Z,33.20
2023-08-14T05:55:56.668Z,24.00
2023-08-14T05:56:56.512Z,23.10
2023-08-14T05:57:56.469Z,21.20
2023-08-14T05:58:56.649Z,26.80
2023-08-14T05:59:56.638Z,20.20
2023-08-14T06:00:56.522Z,19.80
2023-08-14T06:01:58.587Z,17.40
2023-08-14T06:02:56.598Z,25.70
2023-08-14T06:03:56.625Z,22.90
2023-08-14T06:04:56.402Z,18.50
2023-08-14T06:05:56.559Z,25.20
2023-08-14T06:06:56.542Z,28.40
2023-08-14T06:07:56.579Z,21.60
2023-08-14T06:08:58.314Z,31.30
2023-08-14T06:09:56.569Z,28.50
2023-08-14T06:10:56.473Z,21.30
2023-08-14T06:11:56.429Z,19.40
2023-08-14T06:12:56.362Z,21.80
2023-08-14T06:13:56.418Z,21.80
2023-08-14T06:14:56.370Z,20.60
2023-08-14T06:15:56.301Z,21.50
2023-08-14T06:16:56.622Z,19.80
2023-08-14T06:17:56.568Z,18.80
2023-08-14T06:18:56.409Z,19.70
2023-08-14T06:19:56.320Z,20.90
2023-08-14T06:20:56.466Z,20.40
2023-08-14T06:21:56.425Z,16.10
2023-08-14T06:22:56.404Z,23.90
2023-08-14T06:23:56.294Z,18.30
2023-08-14T06:24:56.227Z,18.60
2023-08-14T06:25:56.298Z,19.70
2023-08-14T06:26:56.631Z,26.30
2023-08-14T06:27:56.297Z,13.50
2023-08-14T06:28:56.428Z,15.50
2023-08-14T06:29:56.180Z,18.50
2023-08-14T06:30:56.244Z,15.00
2023-08-14T06:31:56.284Z,14.60
2023-08-14T06:32:56.192Z,13.30
2023-08-14T06:33:56.374Z,18.50
2023-08-14T06:34:56.196Z,18.40
2023-08-14T06:35:56.166Z,21.40
2023-08-14T06:36:56.154Z,16.20
2023-08-14T06:37:56.127Z,16.80
2023-08-14T06:38:57.349Z,18.20
2023-08-14T06:39:56.130Z,18.40
2023-08-14T06:40:56.088Z,20.10
2023-08-14T06:41:56.096Z,16.50
2023-08-14T06:42:56.007Z,15.00
2023-08-14T06:43:56.325Z,17.50
2023-08-14T06:44:56.287Z,16.50
2023-08-14T06:45:56.141Z,16.60
2023-08-14T06:46:56.105Z,17.10
2023-08-14T06:47:55.985Z,15.40
2023-08-14T06:48:55.944Z,16.80
2023-08-14T06:49:56.292Z,19.10
2023-08-14T06:50:56.012Z,17.00
2023-08-14T06:51:55.938Z,17.20
2023-08-14T06:52:56.033Z,16.30
2023-08-14T06:53:56.224Z,18.60
2023-08-14T06:54:55.879Z,14.50
2023-08-14T06:55:55.910Z,14.90
2023-08-14T06:56:55.827Z,17.60
2023-08-14T06:57:55.952Z,17.80
2023-08-14T06:58:55.966Z,16.90
2023-08-14T06:59:55.883Z,14.30
2023-08-14T07:00:55.900Z,15.60
2023-08-14T07:01:55.952Z,20.60
2023-08-14T07:02:55.909Z,13.10
2023-08-14T07:03:55.805Z,14.80
2023-08-14T07:04:55.754Z,15.50
2023-08-14T07:05:55.810Z,12.70
2023-08-14T07:06:55.710Z,15.00
2023-08-14T07:07:55.774Z,13.90
2023-08-14T07:08:55.712Z,14.20
2023-08-14T07:09:55.818Z,13.90
2023-08-14T07:10:55.772Z,18.30
2023-08-14T07:11:55.743Z,15.00
2023-08-14T07:12:55.839Z,12.90
2023-08-14T07:13:55.814Z,18.60
2023-08-14T07:14:55.660Z,15.00
2023-08-14T07:15:55.775Z,15.20
2023-08-14T07:16:55.706Z,15.90
2023-08-14T07:17:55.812Z,14.10
2023-08-14T07:18:55.687Z,14.40
2023-08-14T07:19:55.877Z,16.50
2023-08-14T07:20:56.930Z,15.60
2023-08-14T07:21:55.601Z,15.30
2023-08-14T07:22:55.554Z,13.90
2023-08-14T07:23:55.552Z,13.80
2023-08-14T07:24:55.592Z,18.00
2023-08-14T07:25:55.550Z,16.30
2023-08-14T07:26:55.529Z,14.80
2023-08-14T07:27:55.607Z,17.30
2023-08-14T07:28:55.660Z,15.40
2023-08-14T07:29:55.636Z,14.70
2023-08-14T07:30:55.604Z,17.10
2023-08-14T07:31:55.611Z,16.00
2023-08-14T07:32:56.140Z,15.70
2023-08-14T07:33:55.607Z,16.00
2023-08-14T07:34:55.501Z,16.30
2023-08-14T07:35:55.457Z,15.50
2023-08-14T07:36:55.429Z,15.70
2023-08-14T07:37:56.296Z,18.20
2023-08-14T07:38:55.730Z,17.90
2023-08-14T07:39:56.073Z,18.80
2023-08-14T07:40:56.387Z,17.00
2023-08-14T07:41:55.903Z,17.80
2023-08-14T07:42:55.513Z,16.40
2023-08-14T07:43:55.421Z,17.60
2023-08-14T07:44:55.465Z,17.80
2023-08-14T07:45:55.425Z,18.50
2023-08-14T07:46:55.378Z,19.80
2023-08-14T07:47:55.429Z,17.80
2023-08-14T07:48:55.362Z,17.70
2023-08-14T07:49:55.312Z,21.30
2023-08-14T07:50:55.308Z,19.40
2023-08-14T07:51:55.323Z,17.20
2023-08-14T07:52:55.277Z,19.50
2023-08-14T07:53:55.287Z,16.10
2023-08-14T07:54:55.316Z,14.60
2023-08-14T07:55:55.237Z,14.00
2023-08-14T07:56:55.246Z,15.60
2023-08-14T07:57:55.385Z,16.60
2023-08-14T07:58:55.440Z,15.90
2023-08-14T07:59:55.403Z,18.20
2023-08-14T08:00:55.358Z,17.00
2023-08-14T08:01:55.290Z,27.50
2023-08-14T08:02:55.245Z,18.40
2023-08-14T08:03:55.240Z,14.50
2023-08-14T08:04:55.200Z,18.10
2023-08-14T08:05:55.220Z,21.60
2023-08-14T08:06:55.212Z,26.70
2023-08-14T08:07:55.201Z,22.30
2023-08-14T08:08:55.530Z,20.60
2023-08-14T08:09:55.166Z,22.50
2023-08-14T08:10:55.496Z,24.60
2023-08-14T08:11:56.386Z,21.40
2023-08-14T08:12:55.116Z,22.80
2023-08-14T08:13:57.890Z,19.30
2023-08-14T08:14:55.070Z,23.10
2023-08-14T08:15:55.103Z,13.70
2023-08-14T08:16:55.043Z,13.50
2023-08-14T08:17:55.127Z,13.20
2023-08-14T08:18:55.007Z,14.80
2023-08-14T08:19:56.422Z,14.10
2023-08-14T08:20:55.624Z,17.30
2023-08-14T08:21:56.023Z,19.40
2023-08-14T08:22:55.390Z,14.20
2023-08-14T08:23:54.985Z,17.60
2023-08-14T08:24:55.393Z,16.60
2023-08-14T08:25:55.231Z,14.30
2023-08-14T08:26:55.170Z,14.90
2023-08-14T08:27:55.035Z,17.20
2023-08-14T08:28:55.134Z,17.70
2023-08-14T08:29:55.234Z,15.00
2023-08-14T08:30:55.030Z,14.80
2023-08-14T08:31:55.217Z,16.80
2023-08-14T08:33:03.277Z,19.50
2023-08-14T08:33:54.887Z,14.30
2023-08-14T08:34:54.884Z,15.20
2023-08-14T08:35:54.851Z,12.70
2023-08-14T08:36:54.830Z,14.50
2023-08-14T08:37:54.855Z,13.10
2023-08-14T08:38:54.957Z,18.00
2023-08-14T08:39:54.803Z,13.90
2023-08-14T08:40:54.787Z,12.60
2023-08-14T08:41:54.833Z,12.30
2023-08-14T08:42:54.832Z,16.30
2023-08-14T08:43:54.772Z,13.30
2023-08-14T08:44:54.776Z,12.30
2023-08-14T08:45:54.794Z,12.30
2023-08-14T08:46:54.762Z,12.70
2023-08-14T08:47:54.718Z,13.30
2023-08-14T08:48:54.712Z,12.90
2023-08-14T08:49:54.672Z,13.30
2023-08-14T08:50:54.677Z,14.00
2023-08-14T08:51:54.629Z,14.20
2023-08-14T08:52:54.686Z,11.20
2023-08-14T08:53:54.654Z,14.10
2023-08-14T08:54:54.631Z,13.60
2023-08-14T08:55:54.673Z,10.60
2023-08-14T08:56:54.582Z,13.60
2023-08-14T08:57:54.645Z,12.20
2023-08-14T08:58:54.702Z,11.50
2023-08-14T08:59:54.573Z,12.60
2023-08-14T09:00:54.575Z,11.90
2023-08-14T09:01:57.509Z,12.00
2023-08-14T09:02:54.718Z,15.10
2023-08-14T09:03:54.689Z,12.10
2023-08-14T09:04:54.744Z,12.60
2023-08-14T09:05:54.569Z,12.90
2023-08-14T09:06:54.557Z,13.60
2023-08-14T09:07:54.588Z,11.60
2023-08-14T09:08:54.612Z,12.70
2023-08-14T09:09:54.568Z,10.10
2023-08-14T09:10:54.622Z,11.10
2023-08-14T09:11:54.512Z,13.00
2023-08-14T09:12:54.447Z,11.10
2023-08-14T09:13:54.435Z,13.20
2023-08-14T09:14:54.476Z,10.90
2023-08-14T09:15:54.442Z,10.70
2023-08-14T09:16:54.596Z,10.50
2023-08-14T09:17:54.445Z,11.20
2023-08-14T09:18:54.378Z,16.30
2023-08-14T09:19:54.454Z,9.60
2023-08-14T09:20:54.382Z,11.90
2023-08-14T09:21:54.368Z,12.00
2023-08-14T09:22:54.454Z,10.00
2023-08-14T09:23:54.386Z,13.30
2023-08-14T09:24:54.373Z,9.90
2023-08-14T09:25:54.330Z,9.40
2023-08-14T09:26:54.326Z,7.60
2023-08-14T09:27:54.301Z,10.50
2023-08-14T09:28:54.264Z,10.10
2023-08-14T09:29:54.296Z,11.50
2023-08-14T09:30:54.349Z,11.60
2023-08-14T09:31:54.289Z,11.10
2023-08-14T09:32:54.335Z,10.00
2023-08-14T09:33:54.246Z,8.40
2023-08-14T09:34:54.334Z,9.80
2023-08-14T09:35:54.249Z,7.50
2023-08-14T09:36:54.208Z,10.00
2023-08-14T09:37:54.228Z,10.50
2023-08-14T09:38:54.199Z,10.00
2023-08-14T09:39:54.654Z,11.30
2023-08-14T09:40:54.265Z,11.50
2023-08-14T09:41:54.247Z,8.60
2023-08-14T09:42:54.165Z,9.70
2023-08-14T09:43:54.229Z,10.90
2023-08-14T09:44:54.228Z,8.90
2023-08-14T09:45:54.116Z,10.70
2023-08-14T09:46:54.265Z,11.00
2023-08-14T09:47:54.300Z,9.60
2023-08-14T09:48:54.161Z,11.30
2023-08-14T09:49:54.163Z,11.00
2023-08-14T09:50:54.096Z,10.40
2023-08-14T09:51:54.185Z,11.40
2023-08-14T09:52:54.110Z,10.20
2023-08-14T09:53:54.123Z,12.90
2023-08-14T09:54:54.323Z,11.60
2023-08-14T09:55:54.211Z,10.50
2023-08-14T09:56:54.355Z,12.30
2023-08-14T09:57:54.007Z,11.70
2023-08-14T09:58:54.008Z,10.20
2023-08-14T09:59:54.083Z,12.30
2023-08-14T10:00:54.652Z,9.90
2023-08-14T10:01:53.994Z,13.20
2023-08-14T10:02:54.239Z,9.80
2023-08-14T10:03:54.005Z,9.70
2023-08-14T10:04:54.010Z,9.80
2023-08-14T10:05:54.045Z,8.70
2023-08-14T10:06:53.932Z,9.60
2023-08-14T10:07:53.969Z,8.90
2023-08-14T10:08:53.955Z,13.50
2023-08-14T10:09:53.898Z,11.10
2023-08-14T10:11:05.793Z,9.60
2023-08-14T10:11:53.938Z,9.10
2023-08-14T10:12:53.908Z,11.70
2023-08-14T10:13:53.831Z,10.10
2023-08-14T10:14:53.834Z,10.20
2023-08-14T10:15:53.858Z,9.30
2023-08-14T10:16:53.965Z,9.90
2023-08-14T10:17:53.921Z,10.40
2023-08-14T10:18:53.811Z,9.50
2023-08-14T10:19:53.813Z,12.10
2023-08-14T10:20:53.799Z,8.40
2023-08-14T10:21:53.850Z,11.80
2023-08-14T10:22:53.805Z,12.10
2023-08-14T10:23:53.741Z,12.60
2023-08-14T10:24:53.880Z,11.50
2023-08-14T10:25:54.020Z,9.00
2023-08-14T10:26:53.792Z,11.50
2023-08-14T10:27:53.691Z,12.20
2023-08-14T10:28:53.706Z,13.50
2023-08-14T10:29:53.677Z,15.30
2023-08-14T10:30:53.679Z,13.40
2023-08-14T10:31:53.696Z,9.30
2023-08-14T10:32:53.710Z,11.70
2023-08-14T10:33:53.658Z,9.80
2023-08-14T10:34:53.609Z,14.20
2023-08-14T10:35:53.594Z,9.70
2023-08-14T10:36:53.685Z,11.20
2023-08-14T10:38:08.239Z,11.60
2023-08-14T10:39:53.644Z,11.70
2023-08-14T10:40:54.393Z,10.10
2023-08-14T10:41:53.570Z,9.30
2023-08-14T10:42:53.552Z,9.00
2023-08-14T10:43:53.635Z,12.70
2023-08-14T10:44:53.517Z,11.10
2023-08-14T10:45:53.599Z,10.70
2023-08-14T10:46:53.599Z,10.10
2023-08-14T10:47:53.556Z,11.00
2023-08-14T10:48:53.576Z,12.30
2023-08-14T10:49:53.565Z,10.90
2023-08-14T10:50:53.489Z,11.20
2023-08-14T10:51:53.457Z,10.60
2023-08-14T10:52:53.464Z,9.70
2023-08-14T10:53:53.524Z,13.30
2023-08-14T10:54:53.391Z,12.30
2023-08-14T10:55:53.550Z,10.90
2023-08-14T10:56:53.447Z,9.90
2023-08-14T10:57:53.393Z,7.70
2023-08-14T10:58:53.367Z,7.80
2023-08-14T10:59:53.341Z,10.80
2023-08-14T11:00:53.387Z,8.00
2023-08-14T11:01:53.456Z,13.20
2023-08-14T11:02:53.395Z,7.30
2023-08-14T11:03:53.306Z,9.70
2023-08-14T11:04:53.325Z,11.90
2023-08-14T11:05:53.341Z,11.10
2023-08-14T11:06:53.323Z,8.70
2023-08-14T11:07:53.256Z,8.60
2023-08-14T11:08:53.241Z,9.30
2023-08-14T11:09:53.261Z,13.10
2023-08-14T11:10:53.260Z,9.80
2023-08-14T11:11:53.229Z,7.90
2023-08-14T11:12:53.292Z,8.50
2023-08-14T11:13:53.228Z,9.30
2023-08-14T11:14:53.215Z,9.00
2023-08-14T11:15:53.314Z,10.90
2023-08-14T11:16:53.212Z,10.80
2023-08-14T11:17:53.255Z,9.30
2023-08-14T11:18:53.218Z,9.30
2023-08-14T11:19:53.157Z,9.80
2023-08-14T11:20:53.154Z,11.20
2023-08-14T11:21:53.138Z,9.70
2023-08-14T11:22:53.172Z,8.30
2023-08-14T11:23:53.139Z,12.50
2023-08-14T11:24:53.219Z,9.60
2023-08-14T11:25:53.148Z,10.00
2023-08-14T11:26:53.180Z,8.40
2023-08-14T11:27:53.103Z,9.50
2023-08-14T11:28:53.101Z,12.40
2023-08-14T11:29:54.759Z,11.00
2023-08-14T11:30:53.095Z,10.50
2023-08-14T11:31:53.172Z,8.70
2023-08-14T11:32:53.095Z,8.80
2023-08-14T11:33:53.006Z,10.40
2023-08-14T11:34:53.057Z,8.60
2023-08-14T11:35:52.972Z,10.20
2023-08-14T11:37:06.614Z,10.80
2023-08-14T11:37:52.972Z,8.30
2023-08-14T11:38:52.979Z,9.60
2023-08-14T11:39:53.213Z,8.10
2023-08-14T11:40:52.931Z,7.20
2023-08-14T11:41:52.936Z,8.40
2023-08-14T11:42:52.963Z,8.60
2023-08-14T11:43:52.929Z,9.30
2023-08-14T11:44:52.962Z,10.40
2023-08-14T11:45:52.915Z,9.70
2023-08-14T11:46:52.961Z,10.50
2023-08-14T11:47:53.021Z,10.60
2023-08-14T11:48:52.990Z,9.60
2023-08-14T11:49:52.937Z,8.90
2023-08-14T11:50:52.940Z,9.10
2023-08-14T11:51:52.856Z,8.30
2023-08-14T11:52:52.820Z,9.70
2023-08-14T11:53:52.846Z,10.70
2023-08-14T11:54:52.798Z,9.00
2023-08-14T11:55:52.817Z,9.00
2023-08-14T11:56:52.797Z,9.80
2023-08-14T11:57:52.764Z,8.80
2023-08-14T11:59:03.264Z,7.80
2023-08-14T11:59:52.782Z,7.20
2023-08-14T12:00:52.776Z,6.90
2023-08-14T12:01:52.760Z,8.60
2023-08-14T12:02:52.766Z,10.20
2023-08-14T12:03:52.801Z,9.20
2023-08-14T12:04:52.749Z,11.00
2023-08-14T12:05:52.701Z,8.20
2023-08-14T12:06:52.756Z,8.30
2023-08-14T12:07:52.700Z,10.00
2023-08-14T12:08:52.723Z,8.60
2023-08-14T12:09:52.669Z,10.10
2023-08-14T12:10:52.663Z,8.20
2023-08-14T12:11:52.618Z,8.20
2023-08-14T12:12:55.807Z,9.70
2023-08-14T12:13:52.637Z,9.20
2023-08-14T12:14:52.616Z,8.80
2023-08-14T12:15:53.448Z,7.90
2023-08-14T12:16:52.767Z,12.50
2023-08-14T12:17:52.882Z,8.90
2023-08-14T12:18:52.652Z,7.80
2023-08-14T12:19:52.568Z,9.90
2023-08-14T12:20:52.540Z,7.90
2023-08-14T12:21:52.570Z,8.80
2023-08-14T12:22:59.950Z,9.90
2023-08-14T12:23:52.649Z,9.30
2023-08-14T12:24:52.579Z,8.10
2023-08-14T12:25:52.525Z,10.10
2023-08-14T12:26:52.478Z,7.40
2023-08-14T12:27:52.502Z,9.40
2023-08-14T12:28:52.508Z,6.70
2023-08-14T12:29:52.558Z,9.00
2023-08-14T12:30:52.494Z,9.00
2023-08-14T12:31:52.492Z,12.70
2023-08-14T12:32:52.476Z,6.70
2023-08-14T12:33:59.260Z,8.50
2023-08-14T12:34:52.665Z,7.50
2023-08-14T12:35:52.443Z,6.90
2023-08-14T12:36:52.425Z,8.60
2023-08-14T12:37:52.380Z,8.50
2023-08-14T12:38:52.471Z,9.50
2023-08-14T12:39:52.538Z,8.60
2023-08-14T12:40:52.366Z,10.60
2023-08-14T12:41:52.366Z,8.80
2023-08-14T12:42:52.318Z,12.00
2023-08-14T12:43:52.417Z,10.00
2023-08-14T12:44:52.459Z,12.50
2023-08-14T12:45:52.313Z,9.20
2023-08-14T12:46:54.773Z,7.50
2023-08-14T12:47:52.336Z,7.90
2023-08-14T12:48:52.278Z,8.10
2023-08-14T12:49:52.276Z,8.70
2023-08-14T12:50:52.238Z,6.90
2023-08-14T12:51:52.239Z,8.40
2023-08-14T12:52:52.235Z,8.30
2023-08-14T12:53:52.260Z,8.20
2023-08-14T12:55:04.572Z,10.60
2023-08-14T12:55:55.012Z,9.90
2023-08-14T12:56:52.162Z,8.60
2023-08-14T12:57:52.184Z,8.10
2023-08-14T12:58:52.907Z,11.00
2023-08-14T13:00:52.146Z,9.70
2023-08-14T13:01:52.233Z,7.00
2023-08-14T13:02:52.244Z,9.90
2023-08-14T13:03:52.260Z,8.80
2023-08-14T13:04:53.719Z,12.30
2023-08-14T13:05:52.081Z,8.70
2023-08-14T13:06:52.065Z,8.50
2023-08-14T13:07:52.178Z,9.00
2023-08-14T13:08:52.106Z,10.90
2023-08-14T13:09:52.118Z,9.10
2023-08-14T13:10:52.080Z,6.90